Buzdokuz 13. Sayı

Üçüncü yılının ilk sayısıyla Buzdokuz hız kesmeden okur karşısında. Buzdokuz şiir-teori-eleştiri arasındaki bağı güncellemek için dosyalar düzenliyor. “Çıkarsızlık” ilkesinden yola çıkan dergi, her durağında temel bir kavramı inceledi. Buzdokuz ekibi, 13. sayısında…

Ayn(a)

Çalışmanın tamamını PDF formatında görmek için tıklayınız. Burak Ş. Çelik, 2022.…

Maxima Culpa

Yusuf Koşal bir felç iner evin orta yerine: mezuniyet seslerihazırsan başla,yanağın, kafa etin barkod çizgileriyle kesilecekşurada şu yazar kasada unuttuğun bu parmak da seninen son kepini fırlatırken, onu yuttu gökteki timsah indirdi…

Deus Ex Machina 003

Rahman Yıldız “Google Earth’te dolaştım,mezarını ziyaret ettim.” Hastalığın ağır belirtileri cenaze törenleridir.Tabuttan bir suskunluk sarar oturma şeklimizi.Ölüm, senin karşındaharikalar yaratan durmak eylemine sığınıyoruz.Duruyoruz. Evlerde toplanıyoruz.Toplu ağlaşmalarla acıya karşı kolektif direnç yaratıyoruz.Ölüm, senin…

Bir Makasçı Olarak Şair Portresi

Görsel Şiir: Theodoros Chiotis, Glitcho. Atakan Yavuz “Köle belki de efendisi tarafından en başarılı bir şekilde dilin içinde mahkûm edildi. Ve en etkin isyan biçimi de dilin hatalı kullanımıydı.” Kamau Brathwaite ŞAİR…

Poetik Chart ya da Şiirin Rotası

Görsel Şiir: Hasan Bozdaş SCRM SID KRILL UW56 GRA UT662 DIL UZ117 GBE UP664 PTA UN857 MIA UL206 VUPIP UN857 LZR UN871 SONSO DCT NIRAL UN871 VJF UN10 HIJ UZ230 TLD UN858 DGO UN867 BLV UP87 BELEN DCT GODEM UP87 TERPO UN867 EKRAS UM184 PILIP UN6 TELTU UM185 DIGSU P144 LARGA DCT TINAC DCT KARLI Z261 AMIMO P80 ABASU DCT LAKAG DCT UBELO STAR ENHF Departure: SCRM 021900Z 26023KT 9999 SCT008 BKN034 BKN043 01/M01 Q0972 NOSIGDestination: ENHF 021920Z AUTO 00000KT 9999 NCD M10/M14 Q1012 RMK WIND 1254FT 15006KT Şiirin herşeyleştirildiği veya her…
1 2 3 15